createdAt,value
2019-01-14T00:04:34.202Z,5.00
2019-01-14T00:09:35.428Z,4.61
2019-01-14T00:14:35.395Z,3.69
2019-01-14T00:19:36.728Z,4.38
2019-01-14T00:24:38.305Z,3.67
2019-01-14T00:29:25.483Z,4.47
2019-01-14T00:34:46.479Z,3.67
2019-01-14T00:39:47.519Z,3.47
2019-01-14T00:44:36.096Z,3.60
2019-01-14T00:49:56.167Z,4.31
2019-01-14T00:54:57.251Z,4.18
2019-01-14T00:59:57.600Z,3.55
2019-01-14T01:04:44.839Z,3.87
2019-01-14T01:09:52.138Z,4.53
2019-01-14T01:15:13.222Z,4.02
2019-01-14T01:20:13.505Z,3.76
2019-01-14T01:25:00.654Z,5.30
2019-01-14T01:30:09.145Z,4.10
2019-01-14T01:35:29.350Z,4.04
2019-01-14T01:40:29.546Z,4.07
2019-01-14T01:45:29.656Z,3.54
2019-01-14T01:50:29.969Z,3.66
2019-01-14T01:55:31.058Z,3.96
2019-01-14T02:00:31.401Z,4.01
2019-01-14T02:05:31.386Z,3.26
2019-01-14T02:10:32.735Z,4.34
2019-01-14T02:15:19.834Z,3.59
2019-01-14T02:20:41.022Z,3.79
2019-01-14T02:25:29.095Z,4.07
2019-01-14T02:30:37.450Z,4.19
2019-01-14T02:35:44.558Z,4.24
2019-01-14T02:40:52.918Z,3.65
2019-01-14T02:46:14.024Z,3.42
2019-01-14T02:51:03.574Z,2.62
2019-01-14T02:56:14.555Z,2.79
2019-01-14T03:01:15.587Z,3.26
2019-01-14T03:06:03.812Z,3.09
2019-01-14T03:11:11.219Z,3.07
2019-01-14T03:16:18.272Z,3.29
2019-01-14T03:21:26.650Z,3.15
2019-01-14T03:26:33.793Z,3.46
2019-01-14T03:31:54.919Z,3.28
2019-01-14T03:36:55.915Z,3.30
2019-01-14T03:41:44.201Z,2.74
2019-01-14T03:46:51.273Z,2.85
2019-01-14T03:51:59.638Z,2.10
2019-01-14T03:57:07.029Z,2.65
2019-01-14T04:02:14.141Z,2.65
2019-01-14T04:07:34.248Z,2.25
2019-01-14T04:12:21.657Z,2.41
2019-01-14T04:17:28.910Z,2.79
2019-01-14T04:22:36.196Z,2.61
2019-01-14T04:27:56.172Z,2.62
2019-01-14T04:32:44.543Z,3.49
2019-01-14T04:38:04.641Z,3.06
2019-01-14T04:43:04.775Z,2.62
2019-01-14T04:47:52.833Z,2.46
2019-01-14T04:53:01.062Z,3.25
2019-01-14T04:58:09.639Z,2.92
2019-01-14T05:03:16.866Z,2.15
2019-01-14T05:08:25.065Z,2.41
2019-01-14T05:13:36.281Z,2.50
2019-01-14T05:18:34.544Z,2.45
2019-01-14T05:23:41.913Z,3.00
2019-01-14T05:28:49.006Z,2.57
2019-01-14T05:33:57.446Z,2.98
2019-01-14T05:39:04.539Z,2.84
2019-01-14T05:44:12.917Z,2.85
2019-01-14T05:49:20.124Z,3.18
2019-01-14T05:54:27.431Z,2.49
2019-01-14T05:59:34.565Z,2.94
2019-01-14T06:04:42.858Z,2.49
2019-01-14T06:09:49.995Z,3.17
2019-01-14T06:15:11.294Z,2.90
2019-01-14T06:19:58.369Z,2.35
2019-01-14T06:25:19.690Z,1.95
2019-01-14T06:30:06.917Z,3.21
2019-01-14T06:35:14.405Z,2.38
2019-01-14T06:40:21.482Z,2.42
2019-01-14T06:45:29.673Z,1.92
2019-01-14T06:50:37.874Z,2.44
2019-01-14T06:55:59.057Z,2.67
2019-01-14T07:00:46.279Z,2.38
2019-01-14T07:06:06.483Z,1.99
2019-01-14T07:10:54.702Z,2.06
2019-01-14T07:16:02.100Z,2.62
2019-01-14T07:21:09.305Z,3.88
2019-01-14T07:26:29.446Z,2.24
2019-01-14T07:31:16.559Z,2.22
2019-01-14T07:36:27.291Z,2.20
2019-01-14T07:41:34.538Z,2.22
2019-01-14T07:46:54.743Z,2.13
2019-01-14T07:51:42.907Z,2.13
2019-01-14T07:56:50.467Z,2.37
2019-01-14T08:01:57.728Z,2.15
2019-01-14T08:07:05.056Z,1.99
2019-01-14T08:12:25.183Z,2.27
2019-01-14T08:17:12.466Z,2.29
2019-01-14T08:22:20.550Z,2.39
2019-01-14T08:27:28.881Z,2.56
2019-01-14T08:32:35.990Z,3.10
2019-01-14T08:37:44.352Z,2.20
2019-01-14T08:42:51.391Z,2.72
2019-01-14T08:48:12.585Z,2.38
2019-01-14T08:52:59.848Z,2.25
2019-01-14T08:58:19.991Z,3.16
2019-01-14T09:03:21.062Z,2.39
2019-01-14T09:08:10.535Z,3.35
2019-01-14T09:13:17.638Z,2.09
2019-01-14T09:18:26.036Z,2.59
2019-01-14T09:23:34.079Z,2.41
2019-01-14T09:28:55.437Z,3.43
2019-01-14T09:33:42.724Z,3.50
2019-01-14T09:38:50.931Z,2.78
2019-01-14T09:44:11.137Z,2.55
2019-01-14T09:48:58.515Z,2.90
2019-01-14T09:54:15.412Z,2.29
2019-01-14T09:59:13.663Z,2.63
2019-01-14T10:04:20.736Z,2.66
2019-01-14T10:09:41.881Z,2.89
2019-01-14T10:14:30.224Z,2.77
2019-01-14T10:19:50.540Z,2.68
2019-01-14T10:24:51.504Z,3.41
2019-01-14T10:29:39.981Z,3.09
2019-01-14T10:40:04.878Z,2.26
2019-01-14T10:44:53.202Z,2.60
2019-01-14T10:50:00.709Z,2.82
2019-01-14T10:55:12.273Z,2.95
2019-01-14T11:00:15.108Z,2.85
2019-01-14T11:05:23.320Z,2.59
2019-01-14T11:10:31.647Z,2.86
2019-01-14T11:15:39.840Z,2.35
2019-01-14T11:20:46.961Z,1.79
2019-01-14T11:25:55.014Z,1.55
2019-01-14T11:31:03.368Z,2.09
2019-01-14T11:36:10.532Z,2.16
2019-01-14T11:46:19.712Z,1.87
2019-01-14T11:51:26.963Z,1.87
2019-01-14T11:56:35.010Z,2.17
2019-01-14T12:01:56.094Z,2.21
2019-01-14T12:06:44.292Z,2.00
2019-01-14T12:12:04.519Z,2.12
2019-01-14T12:16:52.710Z,2.29
2019-01-14T12:22:00.080Z,2.23
2019-01-14T12:27:07.274Z,2.44
2019-01-14T12:32:14.583Z,2.59
2019-01-14T12:37:34.702Z,2.49
2019-01-14T12:47:26.917Z,2.08
2019-01-14T12:52:35.238Z,1.63
2019-01-14T12:57:42.774Z,1.70
2019-01-14T13:02:50.055Z,2.09
2019-01-14T13:07:58.118Z,2.01
2019-01-14T13:13:06.331Z,2.09
2019-01-14T13:18:14.601Z,2.28
2019-01-14T13:23:22.967Z,2.38
2019-01-14T13:28:31.166Z,2.10
2019-01-14T13:33:38.478Z,2.32
2019-01-14T13:38:45.666Z,2.27
2019-01-14T13:43:52.924Z,2.36
2019-01-14T13:49:01.034Z,2.10
2019-01-14T13:54:22.294Z,2.28
2019-01-14T13:59:22.365Z,2.43
2019-01-14T14:09:10.456Z,2.03
2019-01-14T14:14:17.703Z,2.43
2019-01-14T14:19:25.976Z,1.94
2019-01-14T14:24:33.553Z,2.37
2019-01-14T14:29:40.760Z,2.70
2019-01-14T14:34:53.136Z,2.05
2019-01-14T14:39:50.296Z,2.63
2019-01-14T14:44:58.626Z,1.70
2019-01-14T14:55:11.743Z,1.92
2019-01-14T15:00:20.144Z,2.57
2019-01-14T15:05:27.349Z,2.26
2019-01-14T15:10:48.299Z,2.19
2019-01-14T15:15:36.476Z,2.66
2019-01-14T15:20:44.558Z,2.10
2019-01-14T15:25:52.836Z,1.99
2019-01-14T15:31:00.874Z,1.58
2019-01-14T15:36:08.974Z,1.92
2019-01-14T15:41:17.058Z,3.16
2019-01-14T15:46:25.327Z,1.94
2019-01-14T15:51:33.440Z,2.14
2019-01-14T15:56:54.567Z,2.14
2019-01-14T16:01:42.787Z,2.05
2019-01-14T16:06:50.148Z,2.34
2019-01-14T16:11:57.377Z,2.28
2019-01-14T16:17:04.702Z,3.15
2019-01-14T16:22:24.709Z,2.25
2019-01-14T16:27:13.076Z,2.24
2019-01-14T16:32:20.171Z,2.58
2019-01-14T16:37:28.510Z,2.56
2019-01-14T16:42:48.484Z,2.04
2019-01-14T16:47:49.539Z,2.18
2019-01-14T16:52:37.727Z,2.71
2019-01-14T16:57:45.137Z,1.92
2019-01-14T17:03:06.173Z,2.24
2019-01-14T17:07:53.110Z,3.19
2019-01-14T17:13:02.706Z,3.67
2019-01-14T17:18:22.082Z,2.33
2019-01-14T17:23:10.356Z,2.24
2019-01-14T17:28:17.702Z,2.42
2019-01-14T17:38:41.551Z,2.22
2019-01-14T17:43:29.745Z,2.56
2019-01-14T17:48:37.512Z,2.93
2019-01-14T17:53:44.337Z,2.12
2019-01-14T17:58:52.676Z,2.04
2019-01-14T18:03:59.871Z,2.77
2019-01-14T18:09:08.264Z,2.13
2019-01-14T18:14:15.485Z,2.45
2019-01-14T18:19:22.877Z,2.88
2019-01-14T18:24:30.091Z,3.60
2019-01-14T18:29:37.386Z,3.48
2019-01-14T18:34:46.609Z,3.63
2019-01-14T18:39:44.945Z,3.04
2019-01-14T18:44:52.146Z,2.84
2019-01-14T18:55:17.461Z,2.47
2019-01-14T19:00:18.764Z,2.90
2019-01-14T19:05:05.991Z,3.52
2019-01-14T19:10:13.310Z,2.81
2019-01-14T19:15:20.573Z,2.98
2019-01-14T19:20:30.783Z,2.77
2019-01-14T19:25:28.023Z,3.09
2019-01-14T19:30:42.401Z,2.59
2019-01-14T19:35:44.209Z,3.51
2019-01-14T19:40:42.989Z,3.02
2019-01-14T19:46:02.106Z,3.24
2019-01-14T19:50:50.352Z,2.47
2019-01-14T19:55:58.458Z,3.69
2019-01-14T20:01:06.911Z,3.17
2019-01-14T20:06:13.945Z,2.70
2019-01-14T20:11:22.200Z,2.48
2019-01-14T20:21:34.212Z,2.37
2019-01-14T20:26:41.282Z,2.65
2019-01-14T20:31:49.684Z,2.03
2019-01-14T20:36:56.926Z,2.13
2019-01-14T20:42:04.168Z,2.45
2019-01-14T20:47:12.255Z,2.45
2019-01-14T20:52:20.520Z,2.34
2019-01-14T20:57:44.480Z,2.07
2019-01-14T21:02:32.949Z,2.59
2019-01-14T21:07:40.085Z,2.56
2019-01-14T21:12:48.372Z,2.12
2019-01-14T21:17:55.447Z,3.02
2019-01-14T21:23:17.147Z,2.34
2019-01-14T21:28:17.322Z,2.48
2019-01-14T21:38:11.960Z,2.66
2019-01-14T21:43:19.514Z,2.33
2019-01-14T21:48:26.754Z,2.01
2019-01-14T21:53:33.958Z,1.81
2019-01-14T21:58:42.144Z,1.96
2019-01-14T22:03:49.390Z,2.45
2019-01-14T22:08:57.641Z,2.27
2019-01-14T22:14:05.044Z,2.37
2019-01-14T22:19:12.291Z,2.07
2019-01-14T22:24:19.468Z,2.06
2019-01-14T22:29:27.679Z,2.39
2019-01-14T22:34:35.015Z,1.72
2019-01-14T22:39:42.252Z,2.81
2019-01-14T22:44:49.483Z,2.15
2019-01-14T22:49:57.560Z,2.37
2019-01-14T22:55:05.992Z,2.04
2019-01-14T23:00:13.237Z,1.65
2019-01-14T23:05:20.640Z,2.15
2019-01-14T23:10:28.877Z,2.07
2019-01-14T23:15:36.152Z,2.44
2019-01-14T23:20:44.331Z,1.99
2019-01-14T23:25:51.598Z,2.18
2019-01-14T23:30:59.674Z,1.83
2019-01-14T23:36:07.306Z,1.79
2019-01-14T23:41:14.420Z,1.97
2019-01-14T23:46:22.783Z,1.80
2019-01-14T23:51:29.999Z,2.04
2019-01-14T23:56:37.387Z,1.95
